This is the latest recevied weather packets stored in our database for station/object PU3XGS-13. If no packets are shown the sender has not sent any weather packets the latest 10 day(s).
| Time | Temp. | Humidity | Pressure | Rain* | Wind** | Luminosity | Snow |
|---|---|---|---|---|---|---|---|
| 1777616192 | 19.44° C | 57% | 1015.7 hPa | - | - | - | - |
| 1777613792 | 18.33° C | 60% | 1016 hPa | - | - | - | - |
| 1777608992 | 19.44° C | 57% | 1016.3 hPa | - | - | - | - |
| 1777606592 | 19.44° C | 56% | 1016.6 hPa | - | - | - | - |
| 1777604192 | 18.89° C | 57% | 1017 hPa | - | - | - | - |
| 1777601792 | 20.56° C | 53% | 1017 hPa | - | - | - | - |
| 1777599392 | 21.11° C | 52% | 1017.1 hPa | - | - | - | - |
| 1777596992 | 20.56° C | 52% | 1016.9 hPa | - | - | - | - |
| 1777594592 | 22.22° C | 47% | 1016.7 hPa | - | - | - | - |
| 1777592192 | 21.67° C | 48% | 1016.7 hPa | - | - | - | - |
| 1777589792 | 23.33° C | 42% | 1016.7 hPa | - | - | - | - |
| 1777587392 | 23.89° C | 42% | 1016.2 hPa | - | - | - | - |
| 1777584992 | 24.44° C | 42% | 1015.6 hPa | - | - | - | - |
| 1777582592 | 25.56° C | 39% | 1015.2 hPa | - | - | - | - |
| 1777580192 | 26.67° C | 36% | 1014.9 hPa | - | - | - | - |
| 1777577792 | 27.78° C | 35% | 1014.8 hPa | - | - | - | - |
| 1777575392 | 28.89° C | 34% | 1014.7 hPa | - | - | - | - |
| 1777572992 | 30° C | 33% | 1014.6 hPa | - | - | - | - |
| 1777570592 | 29.44° C | 32% | 1014.7 hPa | - | - | - | - |
| 1777568192 | 29.44° C | 28% | 1014.9 hPa | - | - | - | - |
| 1777565792 | 28.89° C | 32% | 1015.9 hPa | - | - | - | - |
| 1777563392 | 28.33° C | 34% | 1016.5 hPa | - | - | - | - |
| 1777560992 | 26.67° C | 37% | 1017 hPa | - | - | - | - |
| 1777558592 | 26.67° C | 39% | 1017.7 hPa | - | - | - | - |
| 1777556192 | 25° C | 41% | 1018.2 hPa | - | - | - | - |
* Rain since midnight (hover to see other rain measurements)
** Current wind speed in m/s (hover to see current wind gust speed)